sensor_id;sensor_type;location;lat;lon;timestamp;pressure;altitude;pressure_sealevel;temperature;humidity
31062;BME280;17724;53.546;9.974;2022-07-01T00:00:11;101128.25;;;23.97;70.01
31062;BME280;17724;53.546;9.974;2022-07-01T00:04:11;101147.09;;;23.97;69.12
31062;BME280;17724;53.546;9.974;2022-07-01T00:08:12;101136.25;;;23.57;68.67
31062;BME280;17724;53.546;9.974;2022-07-01T00:12:12;101138.09;;;23.15;73.19
31062;BME280;17724;53.546;9.974;2022-07-01T00:16:13;101139.88;;;23.19;75.31
31062;BME280;17724;53.546;9.974;2022-07-01T00:20:13;101116.59;;;22.37;81.62
31062;BME280;17724;53.546;9.974;2022-07-01T00:24:14;101129.34;;;21.69;89.70
31062;BME280;17724;53.546;9.974;2022-07-01T00:28:15;101097.03;;;21.54;92.69
31062;BME280;17724;53.546;9.974;2022-07-01T00:32:15;101097.00;;;21.45;96.63
31062;BME280;17724;53.546;9.974;2022-07-01T00:36:15;101128.50;;;21.59;99.34
31062;BME280;17724;53.546;9.974;2022-07-01T00:40:16;101114.84;;;20.87;100.00
31062;BME280;17724;53.546;9.974;2022-07-01T00:44:20;101095.63;;;20.94;100.00
31062;BME280;17724;53.546;9.974;2022-07-01T00:48:21;101072.19;;;20.50;100.00
31062;BME280;17724;53.546;9.974;2022-07-01T00:52:22;101050.09;;;19.95;100.00
31062;BME280;17724;53.546;9.974;2022-07-01T00:56:23;101084.53;;;20.13;100.00
31062;BME280;17724;53.546;9.974;2022-07-01T01:00:23;101076.31;;;19.72;100.00
31062;BME280;17724;53.546;9.974;2022-07-01T01:04:24;101058.00;;;19.38;100.00
31062;BME280;17724;53.546;9.974;2022-07-01T01:08:25;101083.34;;;19.28;100.00
31062;BME280;17724;53.546;9.974;2022-07-01T01:12:29;101053.19;;;19.16;100.00
31062;BME280;17724;53.546;9.974;2022-07-01T01:16:29;101044.31;;;19.28;100.00
31062;BME280;17724;53.546;9.974;2022-07-01T01:20:35;101051.41;;;19.34;100.00
31062;BME280;17724;53.546;9.974;2022-07-01T01:24:36;101039.53;;;19.42;100.00
31062;BME280;17724;53.546;9.974;2022-07-01T01:28:37;101034.25;;;19.68;100.00
31062;BME280;17724;53.546;9.974;2022-07-01T01:32:38;101008.09;;;19.64;100.00
31062;BME280;17724;53.546;9.974;2022-07-01T01:36:40;100996.63;;;19.65;100.00
31062;BME280;17724;53.546;9.974;2022-07-01T01:40:43;100987.97;;;19.67;100.00
31062;BME280;17724;53.546;9.974;2022-07-01T01:44:44;100977.63;;;19.67;100.00
31062;BME280;17724;53.546;9.974;2022-07-01T01:48:44;100981.84;;;19.65;100.00
31062;BME280;17724;53.546;9.974;2022-07-01T01:52:44;100992.81;;;19.61;100.00
31062;BME280;17724;53.546;9.974;2022-07-01T01:56:45;101006.28;;;19.82;100.00
31062;BME280;17724;53.546;9.974;2022-07-01T02:00:45;101046.38;;;19.86;100.00
31062;BME280;17724;53.546;9.974;2022-07-01T02:04:46;101059.44;;;19.49;100.00
31062;BME280;17724;53.546;9.974;2022-07-01T02:08:47;101043.59;;;19.86;100.00
31062;BME280;17724;53.546;9.974;2022-07-01T02:12:48;101032.34;;;19.77;100.00
31062;BME280;17724;53.546;9.974;2022-07-01T02:16:48;101055.66;;;19.95;100.00
31062;BME280;17724;53.546;9.974;2022-07-01T02:20:49;101059.47;;;19.99;100.00
31062;BME280;17724;53.546;9.974;2022-07-01T02:24:49;101052.75;;;20.00;100.00
31062;BME280;17724;53.546;9.974;2022-07-01T02:28:50;101047.72;;;19.88;100.00
31062;BME280;17724;53.546;9.974;2022-07-01T02:32:50;101051.28;;;20.03;100.00
31062;BME280;17724;53.546;9.974;2022-07-01T02:36:50;101065.19;;;20.16;100.00
31062;BME280;17724;53.546;9.974;2022-07-01T02:40:55;101076.56;;;20.20;100.00
31062;BME280;17724;53.546;9.974;2022-07-01T02:44:55;101073.00;;;20.28;100.00
31062;BME280;17724;53.546;9.974;2022-07-01T02:48:56;101083.41;;;20.14;100.00
31062;BME280;17724;53.546;9.974;2022-07-01T02:52:56;101081.44;;;19.78;100.00
31062;BME280;17724;53.546;9.974;2022-07-01T02:56:56;101091.84;;;20.00;100.00
31062;BME280;17724;53.546;9.974;2022-07-01T03:00:57;101119.31;;;20.07;100.00
31062;BME280;17724;53.546;9.974;2022-07-01T03:04:59;101124.91;;;20.29;100.00
31062;BME280;17724;53.546;9.974;2022-07-01T03:09:03;101150.59;;;20.17;100.00
31062;BME280;17724;53.546;9.974;2022-07-01T03:13:03;101170.69;;;20.06;100.00
31062;BME280;17724;53.546;9.974;2022-07-01T03:17:04;101177.84;;;20.12;100.00
31062;BME280;17724;53.546;9.974;2022-07-01T03:21:04;101169.00;;;20.18;100.00
31062;BME280;17724;53.546;9.974;2022-07-01T03:25:06;101171.81;;;20.18;100.00
31062;BME280;17724;53.546;9.974;2022-07-01T03:29:06;101185.72;;;19.96;100.00
31062;BME280;17724;53.546;9.974;2022-07-01T03:33:07;101188.69;;;20.13;100.00
31062;BME280;17724;53.546;9.974;2022-07-01T03:37:09;101178.50;;;19.95;100.00
31062;BME280;17724;53.546;9.974;2022-07-01T03:41:09;101196.88;;;19.96;100.00
31062;BME280;17724;53.546;9.974;2022-07-01T03:45:10;101195.25;;;19.81;100.00
31062;BME280;17724;53.546;9.974;2022-07-01T03:49:10;101181.09;;;19.91;100.00
31062;BME280;17724;53.546;9.974;2022-07-01T03:53:11;101178.13;;;20.10;100.00
31062;BME280;17724;53.546;9.974;2022-07-01T03:57:30;101182.53;;;19.89;100.00
31062;BME280;17724;53.546;9.974;2022-07-01T04:01:30;101181.81;;;19.83;100.00
31062;BME280;17724;53.546;9.974;2022-07-01T04:05:33;101151.13;;;19.69;100.00
31062;BME280;17724;53.546;9.974;2022-07-01T04:09:34;101172.09;;;19.81;100.00
31062;BME280;17724;53.546;9.974;2022-07-01T04:13:36;101151.41;;;19.54;100.00
31062;BME280;17724;53.546;9.974;2022-07-01T04:17:39;101170.53;;;19.61;100.00
31062;BME280;17724;53.546;9.974;2022-07-01T04:21:40;101184.28;;;19.85;100.00
31062;BME280;17724;53.546;9.974;2022-07-01T04:25:59;101191.59;;;19.94;100.00
31062;BME280;17724;53.546;9.974;2022-07-01T04:29:59;101209.53;;;19.80;100.00
31062;BME280;17724;53.546;9.974;2022-07-01T04:34:03;101208.22;;;19.58;100.00
31062;BME280;17724;53.546;9.974;2022-07-01T04:38:04;101218.25;;;19.45;100.00
31062;BME280;17724;53.546;9.974;2022-07-01T04:42:05;101217.91;;;19.19;100.00
31062;BME280;17724;53.546;9.974;2022-07-01T04:46:05;101212.19;;;19.11;100.00
31062;BME280;17724;53.546;9.974;2022-07-01T04:50:05;101224.69;;;19.13;100.00
31062;BME280;17724;53.546;9.974;2022-07-01T04:54:07;101235.41;;;19.06;100.00
31062;BME280;17724;53.546;9.974;2022-07-01T04:58:08;101253.91;;;18.83;100.00
31062;BME280;17724;53.546;9.974;2022-07-01T05:02:09;101267.44;;;18.90;100.00
31062;BME280;17724;53.546;9.974;2022-07-01T05:06:09;101277.78;;;18.89;100.00
31062;BME280;17724;53.546;9.974;2022-07-01T05:10:09;101289.50;;;18.86;100.00
31062;BME280;17724;53.546;9.974;2022-07-01T05:14:10;101290.09;;;18.64;100.00
31062;BME280;17724;53.546;9.974;2022-07-01T05:18:10;101292.31;;;18.67;100.00
31062;BME280;17724;53.546;9.974;2022-07-01T05:22:29;101291.38;;;18.53;100.00
31062;BME280;17724;53.546;9.974;2022-07-01T05:26:30;101292.25;;;18.30;100.00
31062;BME280;17724;53.546;9.974;2022-07-01T05:30:30;101297.09;;;18.19;100.00
31062;BME280;17724;53.546;9.974;2022-07-01T05:34:31;101315.50;;;18.20;100.00
31062;BME280;17724;53.546;9.974;2022-07-01T05:38:31;101320.22;;;17.95;100.00
31062;BME280;17724;53.546;9.974;2022-07-01T05:42:32;101330.00;;;17.93;100.00
31062;BME280;17724;53.546;9.974;2022-07-01T05:46:32;101347.53;;;18.17;100.00
31062;BME280;17724;53.546;9.974;2022-07-01T05:50:33;101369.38;;;18.05;100.00
31062;BME280;17724;53.546;9.974;2022-07-01T05:54:34;101382.75;;;18.03;100.00
31062;BME280;17724;53.546;9.974;2022-07-01T05:58:34;101402.88;;;17.95;100.00
31062;BME280;17724;53.546;9.974;2022-07-01T06:02:35;101406.28;;;17.53;100.00
31062;BME280;17724;53.546;9.974;2022-07-01T06:06:35;101406.81;;;17.20;100.00
31062;BME280;17724;53.546;9.974;2022-07-01T06:10:36;101406.69;;;16.91;100.00
31062;BME280;17724;53.546;9.974;2022-07-01T06:14:36;101407.28;;;16.83;100.00
31062;BME280;17724;53.546;9.974;2022-07-01T06:18:37;101391.13;;;16.90;100.00
31062;BME280;17724;53.546;9.974;2022-07-01T06:22:38;101412.59;;;16.80;100.00
31062;BME280;17724;53.546;9.974;2022-07-01T06:26:38;101412.56;;;16.85;100.00
31062;BME280;17724;53.546;9.974;2022-07-01T06:30:38;101418.66;;;16.87;100.00
31062;BME280;17724;53.546;9.974;2022-07-01T06:34:43;101421.72;;;16.85;100.00
31062;BME280;17724;53.546;9.974;2022-07-01T06:38:43;101408.41;;;16.82;100.00
31062;BME280;17724;53.546;9.974;2022-07-01T06:42:44;101398.34;;;16.91;100.00
31062;BME280;17724;53.546;9.974;2022-07-01T06:46:44;101389.19;;;16.96;100.00
31062;BME280;17724;53.546;9.974;2022-07-01T06:50:45;101368.66;;;16.87;100.00
31062;BME280;17724;53.546;9.974;2022-07-01T06:54:45;101354.28;;;16.69;100.00
31062;BME280;17724;53.546;9.974;2022-07-01T06:58:46;101358.19;;;16.68;100.00
31062;BME280;17724;53.546;9.974;2022-07-01T07:02:46;101372.00;;;16.89;100.00
31062;BME280;17724;53.546;9.974;2022-07-01T07:06:49;101387.00;;;16.88;100.00
31062;BME280;17724;53.546;9.974;2022-07-01T07:10:49;101402.31;;;16.80;100.00
31062;BME280;17724;53.546;9.974;2022-07-01T07:14:51;101407.72;;;17.06;100.00
31062;BME280;17724;53.546;9.974;2022-07-01T07:18:51;101415.56;;;16.93;100.00
31062;BME280;17724;53.546;9.974;2022-07-01T07:22:51;101425.03;;;16.92;100.00
31062;BME280;17724;53.546;9.974;2022-07-01T07:26:52;101423.72;;;16.69;100.00
31062;BME280;17724;53.546;9.974;2022-07-01T07:30:52;101441.00;;;16.56;100.00
31062;BME280;17724;53.546;9.974;2022-07-01T07:34:53;101450.69;;;16.59;100.00
31062;BME280;17724;53.546;9.974;2022-07-01T07:38:53;101455.09;;;16.70;100.00
31062;BME280;17724;53.546;9.974;2022-07-01T07:42:53;101462.13;;;16.52;100.00
31062;BME280;17724;53.546;9.974;2022-07-01T07:46:54;101464.50;;;16.89;100.00
31062;BME280;17724;53.546;9.974;2022-07-01T07:50:54;101453.72;;;16.72;100.00
31062;BME280;17724;53.546;9.974;2022-07-01T07:54:55;101454.63;;;16.53;100.00
31062;BME280;17724;53.546;9.974;2022-07-01T07:58:55;101452.94;;;16.57;100.00
31062;BME280;17724;53.546;9.974;2022-07-01T08:02:56;101464.56;;;16.59;100.00
31062;BME280;17724;53.546;9.974;2022-07-01T08:06:56;101461.03;;;16.33;100.00
31062;BME280;17724;53.546;9.974;2022-07-01T08:10:56;101461.59;;;16.40;100.00
31062;BME280;17724;53.546;9.974;2022-07-01T08:14:57;101458.53;;;16.31;100.00
31062;BME280;17724;53.546;9.974;2022-07-01T08:18:57;101467.13;;;16.35;100.00
31062;BME280;17724;53.546;9.974;2022-07-01T08:22:58;101466.88;;;16.36;100.00
31062;BME280;17724;53.546;9.974;2022-07-01T08:26:58;101473.19;;;16.57;100.00
31062;BME280;17724;53.546;9.974;2022-07-01T08:30:59;101482.31;;;16.78;100.00
31062;BME280;17724;53.546;9.974;2022-07-01T08:35:00;101482.25;;;16.93;100.00
31062;BME280;17724;53.546;9.974;2022-07-01T08:39:01;101497.22;;;17.03;100.00
31062;BME280;17724;53.546;9.974;2022-07-01T08:43:04;101500.28;;;17.01;100.00
31062;BME280;17724;53.546;9.974;2022-07-01T08:47:04;101492.56;;;16.88;100.00
31062;BME280;17724;53.546;9.974;2022-07-01T08:51:05;101494.16;;;16.99;100.00
31062;BME280;17724;53.546;9.974;2022-07-01T08:55:06;101505.06;;;16.90;100.00
31062;BME280;17724;53.546;9.974;2022-07-01T08:59:11;101513.41;;;16.70;100.00
31062;BME280;17724;53.546;9.974;2022-07-01T09:03:13;101516.19;;;16.70;100.00
31062;BME280;17724;53.546;9.974;2022-07-01T09:07:13;101533.59;;;17.06;100.00
31062;BME280;17724;53.546;9.974;2022-07-01T09:11:22;101528.25;;;17.25;100.00
31062;BME280;17724;53.546;9.974;2022-07-01T09:15:28;101525.72;;;17.29;100.00
31062;BME280;17724;53.546;9.974;2022-07-01T09:19:32;101539.91;;;17.27;100.00
31062;BME280;17724;53.546;9.974;2022-07-01T09:23:33;101536.28;;;17.27;100.00
31062;BME280;17724;53.546;9.974;2022-07-01T09:27:33;101539.66;;;17.23;100.00
31062;BME280;17724;53.546;9.974;2022-07-01T09:31:34;101551.53;;;17.34;100.00
31062;BME280;17724;53.546;9.974;2022-07-01T09:35:35;101550.47;;;17.30;100.00
31062;BME280;17724;53.546;9.974;2022-07-01T09:39:50;101564.03;;;17.42;100.00
31062;BME280;17724;53.546;9.974;2022-07-01T09:43:51;101552.59;;;17.48;100.00
31062;BME280;17724;53.546;9.974;2022-07-01T09:47:51;101543.28;;;17.24;100.00
31062;BME280;17724;53.546;9.974;2022-07-01T09:51:52;101541.38;;;17.09;100.00
31062;BME280;17724;53.546;9.974;2022-07-01T09:55:52;101548.81;;;17.29;100.00
31062;BME280;17724;53.546;9.974;2022-07-01T09:59:53;101565.50;;;17.24;100.00
31062;BME280;17724;53.546;9.974;2022-07-01T10:03:54;101578.78;;;17.37;100.00
31062;BME280;17724;53.546;9.974;2022-07-01T10:16:21;101596.28;;;17.48;100.00
31062;BME280;17724;53.546;9.974;2022-07-01T10:20:27;101606.22;;;17.54;100.00
31062;BME280;17724;53.546;9.974;2022-07-01T10:24:28;101598.78;;;17.44;100.00
31062;BME280;17724;53.546;9.974;2022-07-01T10:28:31;101607.13;;;17.44;100.00
31062;BME280;17724;53.546;9.974;2022-07-01T10:32:51;101601.06;;;17.27;100.00
31062;BME280;17724;53.546;9.974;2022-07-01T10:37:03;101599.69;;;17.19;100.00
31062;BME280;17724;53.546;9.974;2022-07-01T10:41:04;101608.53;;;17.37;100.00
31062;BME280;17724;53.546;9.974;2022-07-01T10:45:11;101629.44;;;17.19;100.00
31062;BME280;17724;53.546;9.974;2022-07-01T10:49:22;101632.09;;;17.55;100.00
31062;BME280;17724;53.546;9.974;2022-07-01T10:53:47;101650.88;;;17.23;100.00
31062;BME280;17724;53.546;9.974;2022-07-01T10:57:54;101647.44;;;17.42;100.00
31062;BME280;17724;53.546;9.974;2022-07-01T11:01:54;101656.84;;;17.56;100.00
31062;BME280;17724;53.546;9.974;2022-07-01T11:05:55;101664.41;;;17.35;100.00
31062;BME280;17724;53.546;9.974;2022-07-01T11:09:57;101672.75;;;17.45;100.00
31062;BME280;17724;53.546;9.974;2022-07-01T11:13:57;101669.63;;;17.67;100.00
31062;BME280;17724;53.546;9.974;2022-07-01T11:17:58;101664.75;;;17.23;100.00
31062;BME280;17724;53.546;9.974;2022-07-01T11:22:00;101672.25;;;17.28;100.00
31062;BME280;17724;53.546;9.974;2022-07-01T11:26:00;101667.97;;;17.56;100.00
31062;BME280;17724;53.546;9.974;2022-07-01T11:30:09;101675.41;;;17.81;100.00
31062;BME280;17724;53.546;9.974;2022-07-01T11:34:15;101671.28;;;17.68;100.00
31062;BME280;17724;53.546;9.974;2022-07-01T11:38:21;101675.72;;;17.80;100.00
31062;BME280;17724;53.546;9.974;2022-07-01T11:42:41;101668.16;;;17.85;100.00
31062;BME280;17724;53.546;9.974;2022-07-01T11:46:49;101672.88;;;17.85;100.00
31062;BME280;17724;53.546;9.974;2022-07-01T11:50:51;101673.63;;;18.01;100.00
31062;BME280;17724;53.546;9.974;2022-07-01T11:54:54;101674.84;;;17.74;100.00
31062;BME280;17724;53.546;9.974;2022-07-01T11:58:56;101669.91;;;17.61;100.00
31062;BME280;17724;53.546;9.974;2022-07-01T12:02:57;101666.06;;;17.46;99.78
31062;BME280;17724;53.546;9.974;2022-07-01T12:06:58;101662.69;;;17.60;100.00
31062;BME280;17724;53.546;9.974;2022-07-01T12:10:59;101663.72;;;17.74;100.00
31062;BME280;17724;53.546;9.974;2022-07-01T12:15:00;101669.28;;;17.84;100.00
31062;BME280;17724;53.546;9.974;2022-07-01T12:19:01;101676.16;;;17.97;100.00
31062;BME280;17724;53.546;9.974;2022-07-01T12:23:12;101682.25;;;18.04;100.00
31062;BME280;17724;53.546;9.974;2022-07-01T12:27:14;101681.38;;;18.09;100.00
31062;BME280;17724;53.546;9.974;2022-07-01T12:31:14;101679.94;;;18.16;100.00
31062;BME280;17724;53.546;9.974;2022-07-01T12:35:23;101684.53;;;17.92;97.48
31062;BME280;17724;53.546;9.974;2022-07-01T12:39:43;101678.03;;;18.12;97.22
31062;BME280;17724;53.546;9.974;2022-07-01T12:43:44;101681.66;;;18.07;93.65
31062;BME280;17724;53.546;9.974;2022-07-01T12:51:45;101678.06;;;18.46;96.05
31062;BME280;17724;53.546;9.974;2022-07-01T12:55:47;101670.56;;;18.41;93.33
31062;BME280;17724;53.546;9.974;2022-07-01T12:59:48;101669.97;;;18.84;96.83
31062;BME280;17724;53.546;9.974;2022-07-01T13:03:48;101671.88;;;18.88;93.92
31062;BME280;17724;53.546;9.974;2022-07-01T13:07:50;101672.78;;;18.79;91.10
31062;BME280;17724;53.546;9.974;2022-07-01T13:11:50;101678.56;;;19.16;94.24
31062;BME280;17724;53.546;9.974;2022-07-01T13:15:51;101682.19;;;19.17;92.63
31062;BME280;17724;53.546;9.974;2022-07-01T13:19:51;101666.63;;;19.11;89.05
31062;BME280;17724;53.546;9.974;2022-07-01T13:23:52;101674.94;;;18.92;84.09
31062;BME280;17724;53.546;9.974;2022-07-01T13:27:52;101677.75;;;19.16;86.71
31062;BME280;17724;53.546;9.974;2022-07-01T13:31:53;101680.38;;;19.31;82.15
31062;BME280;17724;53.546;9.974;2022-07-01T13:35:53;101686.94;;;19.16;80.94
31062;BME280;17724;53.546;9.974;2022-07-01T13:39:54;101689.16;;;19.19;82.71
31062;BME280;17724;53.546;9.974;2022-07-01T13:43:54;101689.94;;;19.49;83.09
31062;BME280;17724;53.546;9.974;2022-07-01T13:47:54;101684.88;;;19.27;77.55
31062;BME280;17724;53.546;9.974;2022-07-01T13:51:55;101670.56;;;19.58;82.05
31062;BME280;17724;53.546;9.974;2022-07-01T13:55:55;101685.47;;;19.48;77.90
31062;BME280;17724;53.546;9.974;2022-07-01T13:59:56;101703.31;;;19.76;81.54
31062;BME280;17724;53.546;9.974;2022-07-01T14:03:57;101688.06;;;19.68;77.14
31062;BME280;17724;53.546;9.974;2022-07-01T14:07:58;101696.22;;;19.84;80.20
31062;BME280;17724;53.546;9.974;2022-07-01T14:11:58;101698.63;;;19.90;77.28
31062;BME280;17724;53.546;9.974;2022-07-01T14:15:59;101696.22;;;20.03;80.10
31062;BME280;17724;53.546;9.974;2022-07-01T14:19:59;101704.56;;;20.27;80.02
31062;BME280;17724;53.546;9.974;2022-07-01T14:24:00;101707.78;;;19.96;73.39
31062;BME280;17724;53.546;9.974;2022-07-01T14:28:03;101703.88;;;19.97;75.30
31062;BME280;17724;53.546;9.974;2022-07-01T14:32:03;101717.91;;;19.92;72.73
31062;BME280;17724;53.546;9.974;2022-07-01T14:36:04;101731.69;;;19.83;72.74
31062;BME280;17724;53.546;9.974;2022-07-01T14:40:05;101735.91;;;19.81;74.14
31062;BME280;17724;53.546;9.974;2022-07-01T14:44:06;101732.44;;;19.89;74.60
31062;BME280;17724;53.546;9.974;2022-07-01T14:48:07;101725.88;;;19.99;74.91
31062;BME280;17724;53.546;9.974;2022-07-01T14:52:08;101732.59;;;19.98;75.85
31062;BME280;17724;53.546;9.974;2022-07-01T14:56:08;101732.25;;;20.04;77.09
31062;BME280;17724;53.546;9.974;2022-07-01T15:00:09;101736.78;;;20.00;77.01
31062;BME280;17724;53.546;9.974;2022-07-01T15:04:10;101746.06;;;20.14;77.10
31062;BME280;17724;53.546;9.974;2022-07-01T15:08:10;101745.94;;;20.25;78.08
31062;BME280;17724;53.546;9.974;2022-07-01T15:12:12;101740.28;;;20.11;76.70
31062;BME280;17724;53.546;9.974;2022-07-01T15:16:13;101750.38;;;20.07;75.58
31062;BME280;17724;53.546;9.974;2022-07-01T15:20:14;101752.66;;;20.24;78.23
31062;BME280;17724;53.546;9.974;2022-07-01T15:24:15;101747.28;;;20.08;75.36
31062;BME280;17724;53.546;9.974;2022-07-01T15:28:18;101755.31;;;20.15;76.55
31062;BME280;17724;53.546;9.974;2022-07-01T15:32:19;101755.00;;;20.35;78.03
31062;BME280;17724;53.546;9.974;2022-07-01T15:36:19;101753.56;;;20.38;76.76
31062;BME280;17724;53.546;9.974;2022-07-01T15:40:20;101752.50;;;20.34;76.69
31062;BME280;17724;53.546;9.974;2022-07-01T15:44:21;101765.13;;;20.31;77.23
31062;BME280;17724;53.546;9.974;2022-07-01T15:48:21;101751.88;;;20.18;75.46
31062;BME280;17724;53.546;9.974;2022-07-01T15:52:21;101757.84;;;20.30;76.81
31062;BME280;17724;53.546;9.974;2022-07-01T15:56:23;101749.44;;;20.35;76.12
31062;BME280;17724;53.546;9.974;2022-07-01T16:00:24;101744.91;;;20.39;76.12
31062;BME280;17724;53.546;9.974;2022-07-01T16:04:31;101745.03;;;20.48;77.81
31062;BME280;17724;53.546;9.974;2022-07-01T16:08:34;101739.34;;;20.34;74.95
31062;BME280;17724;53.546;9.974;2022-07-01T16:12:36;101746.00;;;20.38;74.30
31062;BME280;17724;53.546;9.974;2022-07-01T16:16:37;101767.53;;;20.38;74.96
31062;BME280;17724;53.546;9.974;2022-07-01T16:20:43;101770.03;;;20.39;74.67
31062;BME280;17724;53.546;9.974;2022-07-01T16:24:47;101777.19;;;20.46;74.56
31062;BME280;17724;53.546;9.974;2022-07-01T16:28:51;101769.97;;;20.45;74.98
31062;BME280;17724;53.546;9.974;2022-07-01T16:32:51;101763.72;;;20.53;74.44
31062;BME280;17724;53.546;9.974;2022-07-01T16:36:53;101765.16;;;20.69;75.41
31062;BME280;17724;53.546;9.974;2022-07-01T16:41:05;101783.16;;;20.63;73.71
31062;BME280;17724;53.546;9.974;2022-07-01T16:45:10;101769.50;;;20.37;72.89
31062;BME280;17724;53.546;9.974;2022-07-01T16:49:16;101774.06;;;20.52;72.54
31062;BME280;17724;53.546;9.974;2022-07-01T16:53:21;101772.69;;;20.50;70.11
31062;BME280;17724;53.546;9.974;2022-07-01T16:57:26;101783.97;;;20.63;71.96
31062;BME280;17724;53.546;9.974;2022-07-01T17:01:28;101795.00;;;20.55;67.87
31062;BME280;17724;53.546;9.974;2022-07-01T17:05:30;101791.44;;;20.49;68.13
31062;BME280;17724;53.546;9.974;2022-07-01T17:09:31;101785.50;;;20.32;68.74
31062;BME280;17724;53.546;9.974;2022-07-01T17:13:34;101788.97;;;20.42;66.39
31062;BME280;17724;53.546;9.974;2022-07-01T17:17:34;101794.94;;;20.36;66.41
31062;BME280;17724;53.546;9.974;2022-07-01T17:21:38;101792.53;;;20.29;67.45
31062;BME280;17724;53.546;9.974;2022-07-01T17:25:43;101796.00;;;20.40;68.58
31062;BME280;17724;53.546;9.974;2022-07-01T17:29:55;101781.09;;;20.69;70.00
31062;BME280;17724;53.546;9.974;2022-07-01T17:34:01;101774.69;;;20.68;68.85
31062;BME280;17724;53.546;9.974;2022-07-01T17:38:05;101779.91;;;20.56;68.74
31062;BME280;17724;53.546;9.974;2022-07-01T17:42:08;101790.44;;;20.40;68.45
31062;BME280;17724;53.546;9.974;2022-07-01T17:46:11;101804.47;;;20.35;67.68
31062;BME280;17724;53.546;9.974;2022-07-01T17:50:11;101802.53;;;20.11;65.90
31062;BME280;17724;53.546;9.974;2022-07-01T17:54:17;101814.22;;;20.13;66.94
31062;BME280;17724;53.546;9.974;2022-07-01T17:58:19;101810.66;;;20.32;67.04
31062;BME280;17724;53.546;9.974;2022-07-01T18:02:20;101801.47;;;20.50;68.92
31062;BME280;17724;53.546;9.974;2022-07-01T18:06:21;101792.97;;;20.60;68.17
31062;BME280;17724;53.546;9.974;2022-07-01T18:10:22;101790.75;;;20.57;68.32
31062;BME280;17724;53.546;9.974;2022-07-01T18:15:36;101799.31;;;20.42;68.62
31062;BME280;17724;53.546;9.974;2022-07-01T18:19:47;101798.66;;;20.31;66.79
31062;BME280;17724;53.546;9.974;2022-07-01T18:23:54;101800.88;;;20.53;68.62
31062;BME280;17724;53.546;9.974;2022-07-01T18:27:57;101822.09;;;20.54;66.79
31062;BME280;17724;53.546;9.974;2022-07-01T18:32:01;101824.91;;;20.73;69.05
31062;BME280;17724;53.546;9.974;2022-07-01T18:36:06;101835.94;;;20.64;69.25
31062;BME280;17724;53.546;9.974;2022-07-01T18:40:10;101835.25;;;20.54;70.50
31062;BME280;17724;53.546;9.974;2022-07-01T18:44:11;101832.41;;;20.35;70.67
31062;BME280;17724;53.546;9.974;2022-07-01T18:48:11;101838.00;;;20.35;71.06
31062;BME280;17724;53.546;9.974;2022-07-01T18:52:11;101850.13;;;20.25;71.64
31062;BME280;17724;53.546;9.974;2022-07-01T18:56:12;101861.44;;;20.15;71.38
31062;BME280;17724;53.546;9.974;2022-07-01T19:00:18;101862.91;;;20.07;71.99
31062;BME280;17724;53.546;9.974;2022-07-01T19:04:18;101858.16;;;20.08;71.98
31062;BME280;17724;53.546;9.974;2022-07-01T19:08:19;101864.03;;;20.06;73.04
31062;BME280;17724;53.546;9.974;2022-07-01T19:12:19;101867.66;;;20.07;72.99
31062;BME280;17724;53.546;9.974;2022-07-01T19:16:19;101870.75;;;20.05;73.46
31062;BME280;17724;53.546;9.974;2022-07-01T19:20:20;101869.09;;;20.04;74.57
31062;BME280;17724;53.546;9.974;2022-07-01T19:24:20;101877.97;;;20.06;74.40
31062;BME280;17724;53.546;9.974;2022-07-01T19:28:21;101876.91;;;20.02;74.35
31062;BME280;17724;53.546;9.974;2022-07-01T19:32:21;101880.06;;;19.96;74.07
31062;BME280;17724;53.546;9.974;2022-07-01T19:36:22;101890.19;;;19.86;74.16
31062;BME280;17724;53.546;9.974;2022-07-01T19:40:24;101899.44;;;19.87;74.82
31062;BME280;17724;53.546;9.974;2022-07-01T19:44:25;101903.94;;;19.83;75.49
31062;BME280;17724;53.546;9.974;2022-07-01T19:48:27;101914.56;;;19.81;75.32
31062;BME280;17724;53.546;9.974;2022-07-01T19:52:27;101921.03;;;19.76;75.06
31062;BME280;17724;53.546;9.974;2022-07-01T19:56:28;101917.97;;;19.73;76.31
31062;BME280;17724;53.546;9.974;2022-07-01T20:00:28;101920.53;;;19.69;76.10
31062;BME280;17724;53.546;9.974;2022-07-01T20:04:29;101922.78;;;19.67;76.11
31062;BME280;17724;53.546;9.974;2022-07-01T20:08:29;101936.19;;;19.65;76.57
31062;BME280;17724;53.546;9.974;2022-07-01T20:12:30;101938.16;;;19.64;76.61
31062;BME280;17724;53.546;9.974;2022-07-01T20:16:30;101946.00;;;19.57;76.88
31062;BME280;17724;53.546;9.974;2022-07-01T20:20:31;101948.00;;;19.52;76.97
31062;BME280;17724;53.546;9.974;2022-07-01T20:24:31;101959.72;;;19.49;77.39
31062;BME280;17724;53.546;9.974;2022-07-01T20:28:32;101978.38;;;19.53;76.84
31062;BME280;17724;53.546;9.974;2022-07-01T20:32:32;101990.72;;;19.47;76.79
31062;BME280;17724;53.546;9.974;2022-07-01T20:36:33;101995.22;;;19.43;76.93
31062;BME280;17724;53.546;9.974;2022-07-01T20:40:33;102001.38;;;19.40;76.86
31062;BME280;17724;53.546;9.974;2022-07-01T20:44:33;102017.84;;;19.36;76.79
31062;BME280;17724;53.546;9.974;2022-07-01T20:48:35;102009.75;;;19.35;77.64
31062;BME280;17724;53.546;9.974;2022-07-01T20:52:35;102014.00;;;19.27;77.64
31062;BME280;17724;53.546;9.974;2022-07-01T20:56:36;102022.59;;;19.31;77.28
31062;BME280;17724;53.546;9.974;2022-07-01T21:00:36;102025.16;;;19.27;77.50
31062;BME280;17724;53.546;9.974;2022-07-01T21:04:37;102029.88;;;19.27;76.34
31062;BME280;17724;53.546;9.974;2022-07-01T21:08:37;102037.41;;;19.31;75.86